sensor_id;sensor_type;location;lat;lon;timestamp;pressure;altitude;pressure_sealevel;temperature;humidity
41062;BME280;26812;42.662;23.352;2023-06-14T00:01:19;94643.47;;;18.09;92.46
41062;BME280;26812;42.662;23.352;2023-06-14T00:03:47;94638.41;;;18.07;92.79
41062;BME280;26812;42.662;23.352;2023-06-14T00:06:13;94634.13;;;18.10;92.07
41062;BME280;26812;42.662;23.352;2023-06-14T00:08:39;94628.66;;;17.76;94.17
41062;BME280;26812;42.662;23.352;2023-06-14T00:11:06;94635.78;;;18.18;92.18
41062;BME280;26812;42.662;23.352;2023-06-14T00:13:31;94632.03;;;18.29;89.71
41062;BME280;26812;42.662;23.352;2023-06-14T00:15:56;94617.25;;;18.00;90.89
41062;BME280;26812;42.662;23.352;2023-06-14T00:18:23;94625.28;;;17.86;92.91
41062;BME280;26812;42.662;23.352;2023-06-14T00:20:54;94613.53;;;17.82;93.26
41062;BME280;26812;42.662;23.352;2023-06-14T00:23:20;94619.06;;;18.19;91.47
41062;BME280;26812;42.662;23.352;2023-06-14T00:25:46;94608.63;;;18.28;89.00
41062;BME280;26812;42.662;23.352;2023-06-14T00:28:12;94631.28;;;18.33;88.70
41062;BME280;26812;42.662;23.352;2023-06-14T00:30:37;94596.75;;;18.10;88.63
41062;BME280;26812;42.662;23.352;2023-06-14T00:33:03;94617.88;;;17.87;91.29
41062;BME280;26812;42.662;23.352;2023-06-14T00:35:28;94612.88;;;17.92;92.42
41062;BME280;26812;42.662;23.352;2023-06-14T00:37:53;94610.53;;;17.91;92.76
41062;BME280;26812;42.662;23.352;2023-06-14T00:40:20;94610.75;;;18.09;91.49
41062;BME280;26812;42.662;23.352;2023-06-14T00:42:46;94608.72;;;18.02;90.59
41062;BME280;26812;42.662;23.352;2023-06-14T00:45:12;94615.03;;;18.06;91.66
41062;BME280;26812;42.662;23.352;2023-06-14T00:47:38;94612.19;;;17.99;91.45
41062;BME280;26812;42.662;23.352;2023-06-14T00:50:07;94604.72;;;17.92;92.50
41062;BME280;26812;42.662;23.352;2023-06-14T00:52:33;94611.09;;;18.37;89.27
41062;BME280;26812;42.662;23.352;2023-06-14T00:54:59;94603.22;;;18.32;88.48
41062;BME280;26812;42.662;23.352;2023-06-14T00:57:26;94602.63;;;18.12;89.38
41062;BME280;26812;42.662;23.352;2023-06-14T00:59:51;94610.47;;;18.17;90.00
41062;BME280;26812;42.662;23.352;2023-06-14T01:02:17;94604.94;;;18.10;90.04
41062;BME280;26812;42.662;23.352;2023-06-14T01:04:47;94603.19;;;17.95;91.39
41062;BME280;26812;42.662;23.352;2023-06-14T01:15:31;94599.06;;;18.08;91.82
41062;BME280;26812;42.662;23.352;2023-06-14T01:17:57;94568.41;;;17.85;92.12
41062;BME280;26812;42.662;23.352;2023-06-14T01:20:29;94591.09;;;17.92;92.65
41062;BME280;26812;42.662;23.352;2023-06-14T01:22:56;94603.38;;;18.09;91.88
41062;BME280;26812;42.662;23.352;2023-06-14T01:25:22;94609.78;;;17.94;92.76
41062;BME280;26812;42.662;23.352;2023-06-14T01:27:53;94602.44;;;17.98;92.82
41062;BME280;26812;42.662;23.352;2023-06-14T01:30:20;94611.03;;;18.00;92.44
41062;BME280;26812;42.662;23.352;2023-06-14T01:32:47;94600.53;;;18.02;93.01
41062;BME280;26812;42.662;23.352;2023-06-14T01:35:13;94607.88;;;17.98;92.57
41062;BME280;26812;42.662;23.352;2023-06-14T01:37:40;94610.50;;;17.87;93.40
41062;BME280;26812;42.662;23.352;2023-06-14T01:40:07;94588.81;;;17.98;92.86
41062;BME280;26812;42.662;23.352;2023-06-14T01:42:36;94598.38;;;18.15;91.80
41062;BME280;26812;42.662;23.352;2023-06-14T01:45:04;94590.66;;;18.24;90.95
41062;BME280;26812;42.662;23.352;2023-06-14T01:47:31;94604.88;;;18.40;88.37
41062;BME280;26812;42.662;23.352;2023-06-14T01:49:57;94593.59;;;18.42;87.89
41062;BME280;26812;42.662;23.352;2023-06-14T01:52:22;94589.22;;;18.00;90.60
41062;BME280;26812;42.662;23.352;2023-06-14T01:54:52;94596.00;;;18.13;90.67
41062;BME280;26812;42.662;23.352;2023-06-14T01:57:17;94599.63;;;18.24;89.97
41062;BME280;26812;42.662;23.352;2023-06-14T01:59:42;94596.16;;;18.27;88.29
41062;BME280;26812;42.662;23.352;2023-06-14T02:02:08;94614.91;;;18.33;88.14
41062;BME280;26812;42.662;23.352;2023-06-14T02:04:33;94600.81;;;17.93;90.45
41062;BME280;26812;42.662;23.352;2023-06-14T02:06:59;94598.56;;;17.99;91.03
41062;BME280;26812;42.662;23.352;2023-06-14T02:09:25;94607.63;;;18.07;90.66
41062;BME280;26812;42.662;23.352;2023-06-14T02:11:50;94618.00;;;18.31;89.30
41062;BME280;26812;42.662;23.352;2023-06-14T02:14:16;94625.03;;;18.32;89.22
41062;BME280;26812;42.662;23.352;2023-06-14T02:16:42;94626.16;;;18.27;89.62
41062;BME280;26812;42.662;23.352;2023-06-14T02:19:14;94623.13;;;18.36;88.01
41062;BME280;26812;42.662;23.352;2023-06-14T02:21:47;94610.47;;;18.17;89.39
41062;BME280;26812;42.662;23.352;2023-06-14T02:24:13;94621.19;;;18.37;88.28
41062;BME280;26812;42.662;23.352;2023-06-14T02:26:38;94626.56;;;18.29;88.22
41062;BME280;26812;42.662;23.352;2023-06-14T02:29:07;94635.38;;;18.16;90.11
41062;BME280;26812;42.662;23.352;2023-06-14T02:31:35;94636.31;;;17.97;91.40
41062;BME280;26812;42.662;23.352;2023-06-14T02:34:00;94634.03;;;18.03;91.49
41062;BME280;26812;42.662;23.352;2023-06-14T02:36:26;94623.00;;;17.92;91.98
41062;BME280;26812;42.662;23.352;2023-06-14T02:38:51;94634.22;;;17.87;92.75
41062;BME280;26812;42.662;23.352;2023-06-14T02:41:19;94626.97;;;17.98;91.10
41062;BME280;26812;42.662;23.352;2023-06-14T02:43:44;94609.28;;;17.85;89.86
41062;BME280;26812;42.662;23.352;2023-06-14T02:46:10;94621.03;;;17.89;90.71
41062;BME280;26812;42.662;23.352;2023-06-14T02:48:36;94645.13;;;18.17;89.37
41062;BME280;26812;42.662;23.352;2023-06-14T02:51:02;94624.91;;;17.88;91.14
41062;BME280;26812;42.662;23.352;2023-06-14T02:53:27;94628.38;;;17.85;91.44
41062;BME280;26812;42.662;23.352;2023-06-14T02:55:52;94633.16;;;17.95;90.99
41062;BME280;26812;42.662;23.352;2023-06-14T02:58:20;94634.72;;;17.96;90.84
41062;BME280;26812;42.662;23.352;2023-06-14T03:00:46;94604.31;;;17.64;91.53
41062;BME280;26812;42.662;23.352;2023-06-14T03:03:11;94625.19;;;17.79;91.53
41062;BME280;26812;42.662;23.352;2023-06-14T03:05:44;94639.06;;;17.71;92.08
41062;BME280;26812;42.662;23.352;2023-06-14T03:08:13;94653.97;;;18.07;90.11
41062;BME280;26812;42.662;23.352;2023-06-14T03:10:45;94636.16;;;17.60;91.09
41062;BME280;26812;42.662;23.352;2023-06-14T03:13:10;94636.94;;;17.60;92.19
41062;BME280;26812;42.662;23.352;2023-06-14T03:15:36;94645.88;;;17.84;91.47
41062;BME280;26812;42.662;23.352;2023-06-14T03:18:02;94659.03;;;18.08;88.36
41062;BME280;26812;42.662;23.352;2023-06-14T03:20:29;94651.66;;;18.09;87.20
41062;BME280;26812;42.662;23.352;2023-06-14T03:22:55;94649.34;;;17.81;87.41
41062;BME280;26812;42.662;23.352;2023-06-14T03:25:20;94652.69;;;17.71;89.52
41062;BME280;26812;42.662;23.352;2023-06-14T03:27:47;94625.75;;;17.39;91.17
41062;BME280;26812;42.662;23.352;2023-06-14T03:30:13;94648.75;;;17.68;91.37
41062;BME280;26812;42.662;23.352;2023-06-14T03:32:38;94656.97;;;17.72;90.35
41062;BME280;26812;42.662;23.352;2023-06-14T03:35:04;94622.19;;;17.35;91.66
41062;BME280;26812;42.662;23.352;2023-06-14T03:37:30;94651.16;;;17.73;90.78
41062;BME280;26812;42.662;23.352;2023-06-14T03:39:55;94638.31;;;17.74;89.29
41062;BME280;26812;42.662;23.352;2023-06-14T03:42:21;94656.34;;;17.82;89.45
41062;BME280;26812;42.662;23.352;2023-06-14T03:44:46;94648.50;;;17.77;89.61
41062;BME280;26812;42.662;23.352;2023-06-14T03:47:11;94659.13;;;18.15;87.86
41062;BME280;26812;42.662;23.352;2023-06-14T03:49:37;94654.84;;;18.14;87.16
41062;BME280;26812;42.662;23.352;2023-06-14T03:52:03;94653.59;;;18.08;87.88
41062;BME280;26812;42.662;23.352;2023-06-14T03:54:29;94640.84;;;17.86;89.28
41062;BME280;26812;42.662;23.352;2023-06-14T03:56:54;94667.44;;;17.96;89.71
41062;BME280;26812;42.662;23.352;2023-06-14T03:59:22;94650.63;;;18.20;87.49
41062;BME280;26812;42.662;23.352;2023-06-14T04:01:48;94659.84;;;18.09;87.60
41062;BME280;26812;42.662;23.352;2023-06-14T04:04:14;94647.41;;;17.81;89.11
41062;BME280;26812;42.662;23.352;2023-06-14T04:06:41;94656.00;;;17.83;89.84
41062;BME280;26812;42.662;23.352;2023-06-14T04:09:08;94662.22;;;17.84;90.57
41062;BME280;26812;42.662;23.352;2023-06-14T04:11:33;94656.72;;;17.54;91.72
41062;BME280;26812;42.662;23.352;2023-06-14T04:13:59;94672.06;;;17.92;91.19
41062;BME280;26812;42.662;23.352;2023-06-14T04:16:25;94665.50;;;17.96;90.06
41062;BME280;26812;42.662;23.352;2023-06-14T04:18:50;94669.09;;;18.04;89.42
41062;BME280;26812;42.662;23.352;2023-06-14T04:21:18;94666.50;;;17.85;90.90
41062;BME280;26812;42.662;23.352;2023-06-14T04:23:43;94643.53;;;17.82;91.28
41062;BME280;26812;42.662;23.352;2023-06-14T04:26:09;94653.41;;;17.94;91.48
41062;BME280;26812;42.662;23.352;2023-06-14T04:28:36;94673.16;;;18.17;89.71
41062;BME280;26812;42.662;23.352;2023-06-14T04:31:06;94635.06;;;17.64;90.50
41062;BME280;26812;42.662;23.352;2023-06-14T04:33:36;94665.28;;;18.09;91.05
41062;BME280;26812;42.662;23.352;2023-06-14T04:36:12;94670.59;;;18.31;89.63
41062;BME280;26812;42.662;23.352;2023-06-14T04:38:38;94652.59;;;18.23;87.78
41062;BME280;26812;42.662;23.352;2023-06-14T04:41:04;94654.28;;;18.35;88.03
41062;BME280;26812;42.662;23.352;2023-06-14T04:43:30;94661.78;;;18.42;88.26
41062;BME280;26812;42.662;23.352;2023-06-14T04:45:57;94671.31;;;18.58;88.70
41062;BME280;26812;42.662;23.352;2023-06-14T04:48:22;94644.19;;;18.69;85.61
41062;BME280;26812;42.662;23.352;2023-06-14T04:50:48;94673.59;;;18.86;84.84
41062;BME280;26812;42.662;23.352;2023-06-14T04:53:18;94664.50;;;18.75;84.84
41062;BME280;26812;42.662;23.352;2023-06-14T04:55:46;94677.56;;;18.59;85.88
41062;BME280;26812;42.662;23.352;2023-06-14T04:58:12;94671.31;;;18.58;85.98
41062;BME280;26812;42.662;23.352;2023-06-14T05:00:38;94683.66;;;18.79;86.10
41062;BME280;26812;42.662;23.352;2023-06-14T05:03:03;94681.06;;;18.93;85.48
41062;BME280;26812;42.662;23.352;2023-06-14T05:05:31;94694.22;;;19.24;82.43
41062;BME280;26812;42.662;23.352;2023-06-14T05:07:56;94696.66;;;18.92;82.44
41062;BME280;26812;42.662;23.352;2023-06-14T05:10:21;94685.66;;;18.52;82.90
41062;BME280;26812;42.662;23.352;2023-06-14T05:12:47;94694.25;;;18.87;82.59
41062;BME280;26812;42.662;23.352;2023-06-14T05:15:13;94685.06;;;19.03;81.77
41062;BME280;26812;42.662;23.352;2023-06-14T05:17:40;94675.38;;;19.12;80.18
41062;BME280;26812;42.662;23.352;2023-06-14T05:20:06;94696.56;;;19.26;80.26
41062;BME280;26812;42.662;23.352;2023-06-14T05:22:32;94684.84;;;19.26;81.14
41062;BME280;26812;42.662;23.352;2023-06-14T05:24:57;94673.84;;;19.15;80.79
41062;BME280;26812;42.662;23.352;2023-06-14T05:27:23;94689.16;;;19.27;80.53
41062;BME280;26812;42.662;23.352;2023-06-14T05:29:49;94700.63;;;19.43;79.12
41062;BME280;26812;42.662;23.352;2023-06-14T05:35:35;94682.13;;;19.26;79.28
41062;BME280;26812;42.662;23.352;2023-06-14T05:38:00;94702.91;;;19.34;77.67
41062;BME280;26812;42.662;23.352;2023-06-14T05:40:28;94705.91;;;19.21;77.55
41062;BME280;26812;42.662;23.352;2023-06-14T05:42:54;94715.78;;;19.37;77.92
41062;BME280;26812;42.662;23.352;2023-06-14T05:45:20;94703.09;;;19.59;77.08
41062;BME280;26812;42.662;23.352;2023-06-14T05:47:45;94707.06;;;19.61;76.48
41062;BME280;26812;42.662;23.352;2023-06-14T05:50:10;94716.16;;;19.83;76.36
41062;BME280;26812;42.662;23.352;2023-06-14T05:52:36;94724.06;;;19.92;76.20
41062;BME280;26812;42.662;23.352;2023-06-14T05:55:03;94725.63;;;19.93;74.76
41062;BME280;26812;42.662;23.352;2023-06-14T05:57:28;94713.94;;;19.99;74.85
41062;BME280;26812;42.662;23.352;2023-06-14T05:59:54;94704.97;;;20.02;73.74
41062;BME280;26812;42.662;23.352;2023-06-14T06:02:19;94723.00;;;20.10;73.51
41062;BME280;26812;42.662;23.352;2023-06-14T06:04:45;94692.38;;;19.87;73.71
41062;BME280;26812;42.662;23.352;2023-06-14T06:07:10;94707.28;;;19.93;74.09
41062;BME280;26812;42.662;23.352;2023-06-14T06:09:36;94696.72;;;19.92;73.92
41062;BME280;26812;42.662;23.352;2023-06-14T06:12:02;94690.97;;;20.14;73.77
41062;BME280;26812;42.662;23.352;2023-06-14T06:14:27;94690.25;;;20.25;74.36
41062;BME280;26812;42.662;23.352;2023-06-14T06:16:54;94718.88;;;20.41;74.51
41062;BME280;26812;42.662;23.352;2023-06-14T06:19:19;94723.19;;;20.42;75.01
41062;BME280;26812;42.662;23.352;2023-06-14T06:21:45;94724.47;;;20.63;75.24
41062;BME280;26812;42.662;23.352;2023-06-14T06:24:11;94735.69;;;20.40;76.20
41062;BME280;26812;42.662;23.352;2023-06-14T06:26:36;94734.53;;;20.48;76.06
41062;BME280;26812;42.662;23.352;2023-06-14T06:29:02;94722.88;;;20.58;76.40
41062;BME280;26812;42.662;23.352;2023-06-14T06:31:27;94739.53;;;20.32;76.64
41062;BME280;26812;42.662;23.352;2023-06-14T06:33:54;94734.28;;;20.05;77.73
41062;BME280;26812;42.662;23.352;2023-06-14T06:36:19;94742.31;;;19.80;78.95
41062;BME280;26812;42.662;23.352;2023-06-14T06:38:47;94726.91;;;19.58;80.50
41062;BME280;26812;42.662;23.352;2023-06-14T06:41:12;94729.78;;;19.76;80.06
41062;BME280;26812;42.662;23.352;2023-06-14T06:43:38;94746.63;;;19.81;80.03
41062;BME280;26812;42.662;23.352;2023-06-14T06:46:03;94714.38;;;19.53;79.04
41062;BME280;26812;42.662;23.352;2023-06-14T06:48:28;94740.38;;;19.81;78.86
41062;BME280;26812;42.662;23.352;2023-06-14T06:50:54;94755.16;;;19.73;78.82
41062;BME280;26812;42.662;23.352;2023-06-14T06:53:20;94732.47;;;19.69;79.23
41062;BME280;26812;42.662;23.352;2023-06-14T06:55:45;94735.25;;;19.76;79.08
41062;BME280;26812;42.662;23.352;2023-06-14T06:58:12;94756.56;;;20.04;77.51
41062;BME280;26812;42.662;23.352;2023-06-14T07:00:37;94756.31;;;19.72;79.12
41062;BME280;26812;42.662;23.352;2023-06-14T07:03:03;94747.34;;;19.75;79.66
41062;BME280;26812;42.662;23.352;2023-06-14T07:05:29;94743.63;;;19.97;78.84
41062;BME280;26812;42.662;23.352;2023-06-14T07:07:54;94749.16;;;20.11;78.09
41062;BME280;26812;42.662;23.352;2023-06-14T07:10:20;94747.03;;;19.83;80.36
41062;BME280;26812;42.662;23.352;2023-06-14T07:12:45;94740.38;;;19.81;79.01
41062;BME280;26812;42.662;23.352;2023-06-14T07:15:11;94749.91;;;20.01;79.25
41062;BME280;26812;42.662;23.352;2023-06-14T07:17:36;94737.75;;;19.95;78.48
41062;BME280;26812;42.662;23.352;2023-06-14T07:20:03;94730.78;;;20.05;76.64
41062;BME280;26812;42.662;23.352;2023-06-14T07:22:40;94724.97;;;20.17;77.04
41062;BME280;26812;42.662;23.352;2023-06-14T07:25:07;94736.16;;;20.56;74.94
41062;BME280;26812;42.662;23.352;2023-06-14T07:27:33;94735.88;;;20.86;76.09
41062;BME280;26812;42.662;23.352;2023-06-14T07:29:59;94733.56;;;20.92;76.52
41062;BME280;26812;42.662;23.352;2023-06-14T07:32:24;94731.72;;;21.35;71.44
41062;BME280;26812;42.662;23.352;2023-06-14T07:34:50;94733.66;;;21.38;72.14
41062;BME280;26812;42.662;23.352;2023-06-14T07:37:15;94736.41;;;21.31;73.45
41062;BME280;26812;42.662;23.352;2023-06-14T07:39:40;94717.25;;;21.74;69.99
41062;BME280;26812;42.662;23.352;2023-06-14T07:42:06;94736.06;;;21.75;70.40
41062;BME280;26812;42.662;23.352;2023-06-14T07:44:31;94720.34;;;21.36;69.13
41062;BME280;26812;42.662;23.352;2023-06-14T07:46:57;94713.34;;;21.46;69.60
41062;BME280;26812;42.662;23.352;2023-06-14T07:49:25;94726.66;;;21.51;68.39
41062;BME280;26812;42.662;23.352;2023-06-14T07:51:50;94724.28;;;21.67;68.23
41062;BME280;26812;42.662;23.352;2023-06-14T07:54:16;94747.03;;;22.07;67.75
41062;BME280;26812;42.662;23.352;2023-06-14T07:56:42;94743.44;;;22.31;65.09
41062;BME280;26812;42.662;23.352;2023-06-14T07:59:07;94736.81;;;22.15;66.18
41062;BME280;26812;42.662;23.352;2023-06-14T08:01:33;94750.16;;;21.84;67.27
41062;BME280;26812;42.662;23.352;2023-06-14T08:03:58;94745.47;;;22.06;67.51
41062;BME280;26812;42.662;23.352;2023-06-14T08:06:24;94752.06;;;22.37;66.22
41062;BME280;26812;42.662;23.352;2023-06-14T08:08:50;94771.22;;;22.66;65.88
41062;BME280;26812;42.662;23.352;2023-06-14T08:11:15;94753.75;;;23.11;63.20
41062;BME280;26812;42.662;23.352;2023-06-14T08:13:41;94772.44;;;23.41;60.57
41062;BME280;26812;42.662;23.352;2023-06-14T08:16:07;94771.56;;;23.62;60.41
41062;BME280;26812;42.662;23.352;2023-06-14T08:18:32;94777.28;;;23.82;60.25
41062;BME280;26812;42.662;23.352;2023-06-14T08:20:58;94776.50;;;23.81;59.66
41062;BME280;26812;42.662;23.352;2023-06-14T08:23:23;94768.88;;;23.48;58.73
41062;BME280;26812;42.662;23.352;2023-06-14T08:25:48;94784.25;;;23.38;59.78
41062;BME280;26812;42.662;23.352;2023-06-14T08:28:14;94782.66;;;23.41;59.83
41062;BME280;26812;42.662;23.352;2023-06-14T08:30:42;94774.06;;;23.32;60.41
41062;BME280;26812;42.662;23.352;2023-06-14T08:33:07;94787.84;;;23.28;60.61
41062;BME280;26812;42.662;23.352;2023-06-14T08:35:33;94773.78;;;23.12;60.96
41062;BME280;26812;42.662;23.352;2023-06-14T08:37:58;94766.31;;;23.16;61.01
41062;BME280;26812;42.662;23.352;2023-06-14T08:40:23;94781.56;;;23.28;61.03
41062;BME280;26812;42.662;23.352;2023-06-14T08:42:53;94767.00;;;23.34;60.86
41062;BME280;26812;42.662;23.352;2023-06-14T08:45:22;94768.91;;;23.41;60.45
41062;BME280;26812;42.662;23.352;2023-06-14T08:47:48;94769.66;;;23.45;59.67
41062;BME280;26812;42.662;23.352;2023-06-14T08:50:21;94771.88;;;23.71;59.51
41062;BME280;26812;42.662;23.352;2023-06-14T08:52:48;94729.47;;;23.06;59.25
41062;BME280;26812;42.662;23.352;2023-06-14T08:55:16;94759.91;;;23.37;60.57
41062;BME280;26812;42.662;23.352;2023-06-14T08:57:43;94765.50;;;23.81;60.10
41062;BME280;26812;42.662;23.352;2023-06-14T09:00:10;94751.13;;;24.08;59.22
41062;BME280;26812;42.662;23.352;2023-06-14T09:02:39;94755.16;;;24.00;60.01
41062;BME280;26812;42.662;23.352;2023-06-14T09:05:12;94752.63;;;23.71;59.73
41062;BME280;26812;42.662;23.352;2023-06-14T09:07:43;94760.25;;;23.42;58.53
41062;BME280;26812;42.662;23.352;2023-06-14T09:10:11;94763.41;;;23.41;57.40
41062;BME280;26812;42.662;23.352;2023-06-14T09:12:37;94755.72;;;23.14;58.84
41062;BME280;26812;42.662;23.352;2023-06-14T09:15:03;94741.34;;;22.82;59.87
41062;BME280;26812;42.662;23.352;2023-06-14T09:17:38;94748.34;;;22.93;60.09
41062;BME280;26812;42.662;23.352;2023-06-14T09:20:04;94746.25;;;23.19;59.65
41062;BME280;26812;42.662;23.352;2023-06-14T09:22:34;94730.56;;;23.19;60.00
41062;BME280;26812;42.662;23.352;2023-06-14T09:25:00;94748.84;;;23.44;59.46
41062;BME280;26812;42.662;23.352;2023-06-14T09:27:26;94752.56;;;23.78;59.17
41062;BME280;26812;42.662;23.352;2023-06-14T09:29:52;94751.25;;;23.97;57.03
41062;BME280;26812;42.662;23.352;2023-06-14T09:32:18;94731.47;;;24.09;57.03
41062;BME280;26812;42.662;23.352;2023-06-14T09:34:45;94746.81;;;24.48;55.47
41062;BME280;26812;42.662;23.352;2023-06-14T09:37:10;94751.59;;;24.44;54.17
41062;BME280;26812;42.662;23.352;2023-06-14T09:39:36;94728.69;;;24.13;56.33
41062;BME280;26812;42.662;23.352;2023-06-14T09:42:17;94737.16;;;24.70;57.47
41062;BME280;26812;42.662;23.352;2023-06-14T09:44:46;94717.78;;;24.77;56.11
41062;BME280;26812;42.662;23.352;2023-06-14T09:47:13;94710.66;;;24.50;55.48
41062;BME280;26812;42.662;23.352;2023-06-14T09:49:39;94711.28;;;24.61;55.54
41062;BME280;26812;42.662;23.352;2023-06-14T09:52:06;94740.38;;;24.99;54.45
41062;BME280;26812;42.662;23.352;2023-06-14T09:54:33;94718.56;;;24.78;52.84
41062;BME280;26812;42.662;23.352;2023-06-14T09:57:02;94731.22;;;24.72;53.81
41062;BME280;26812;42.662;23.352;2023-06-14T09:59:31;94731.06;;;24.86;54.05
41062;BME280;26812;42.662;23.352;2023-06-14T10:01:58;94699.19;;;24.55;54.63
41062;BME280;26812;42.662;23.352;2023-06-14T10:04:25;94723.75;;;24.72;55.65
41062;BME280;26812;42.662;23.352;2023-06-14T10:06:52;94712.50;;;24.90;54.75
41062;BME280;26812;42.662;23.352;2023-06-14T10:09:18;94703.59;;;24.79;53.42
41062;BME280;26812;42.662;23.352;2023-06-14T10:11:45;94705.25;;;24.73;54.84
41062;BME280;26812;42.662;23.352;2023-06-14T10:14:12;94707.44;;;25.19;53.31
41062;BME280;26812;42.662;23.352;2023-06-14T10:16:39;94707.56;;;25.35;52.41
41062;BME280;26812;42.662;23.352;2023-06-14T10:19:16;94690.50;;;25.71;52.18
41062;BME280;26812;42.662;23.352;2023-06-14T10:24:42;94698.22;;;25.29;51.27
41062;BME280;26812;42.662;23.352;2023-06-14T10:27:08;94675.72;;;25.04;49.78
41062;BME280;26812;42.662;23.352;2023-06-14T10:32:24;94684.91;;;25.24;52.27
41062;BME280;26812;42.662;23.352;2023-06-14T10:34:56;94700.66;;;25.78;51.13
41062;BME280;26812;42.662;23.352;2023-06-14T10:37:22;94683.78;;;25.95;49.99
41062;BME280;26812;42.662;23.352;2023-06-14T10:39:47;94698.84;;;25.67;51.74
41062;BME280;26812;42.662;23.352;2023-06-14T10:42:14;94689.25;;;25.49;51.00
41062;BME280;26812;42.662;23.352;2023-06-14T10:44:40;94691.31;;;25.45;50.94
41062;BME280;26812;42.662;23.352;2023-06-14T10:47:07;94680.63;;;25.47;50.77
41062;BME280;26812;42.662;23.352;2023-06-14T10:49:38;94682.75;;;25.35;51.14
41062;BME280;26812;42.662;23.352;2023-06-14T10:52:11;94673.38;;;25.02;51.26
41062;BME280;26812;42.662;23.352;2023-06-14T10:58:07;94660.63;;;24.85;50.87
41062;BME280;26812;42.662;23.352;2023-06-14T11:00:33;94655.59;;;25.34;51.07
41062;BME280;26812;42.662;23.352;2023-06-14T11:10:58;94647.63;;;24.86;50.29
41062;BME280;26812;42.662;23.352;2023-06-14T11:13:26;94650.34;;;24.89;51.11
41062;BME280;26812;42.662;23.352;2023-06-14T11:15:51;94651.88;;;24.90;52.19
41062;BME280;26812;42.662;23.352;2023-06-14T11:18:19;94657.28;;;24.97;51.26
41062;BME280;26812;42.662;23.352;2023-06-14T11:20:56;94631.41;;;24.91;51.59
41062;BME280;26812;42.662;23.352;2023-06-14T11:23:22;94649.66;;;25.35;51.11
41062;BME280;26812;42.662;23.352;2023-06-14T11:25:52;94639.69;;;25.45;51.00
41062;BME280;26812;42.662;23.352;2023-06-14T11:28:37;94647.09;;;25.25;49.50
41062;BME280;26812;42.662;23.352;2023-06-14T11:31:03;94642.41;;;25.22;50.42
41062;BME280;26812;42.662;23.352;2023-06-14T11:33:29;94642.19;;;25.59;49.28
41062;BME280;26812;42.662;23.352;2023-06-14T11:35:54;94649.50;;;25.73;48.67
41062;BME280;26812;42.662;23.352;2023-06-14T11:38:20;94645.66;;;25.40;49.15
41062;BME280;26812;42.662;23.352;2023-06-14T11:40:45;94629.50;;;25.42;50.01
41062;BME280;26812;42.662;23.352;2023-06-14T11:43:17;94637.03;;;24.84;50.69
41062;BME280;26812;42.662;23.352;2023-06-14T11:45:42;94618.78;;;24.94;51.26
41062;BME280;26812;42.662;23.352;2023-06-14T11:48:08;94625.75;;;25.29;49.91
41062;BME280;26812;42.662;23.352;2023-06-14T11:50:40;94612.09;;;25.45;48.01
41062;BME280;26812;42.662;23.352;2023-06-14T11:53:06;94627.13;;;25.64;49.26
41062;BME280;26812;42.662;23.352;2023-06-14T11:55:39;94630.22;;;25.69;49.75
41062;BME280;26812;42.662;23.352;2023-06-14T11:58:06;94619.88;;;25.77;49.40
41062;BME280;26812;42.662;23.352;2023-06-14T12:00:31;94607.22;;;25.99;49.02
41062;BME280;26812;42.662;23.352;2023-06-14T12:02:57;94600.03;;;25.59;47.95
41062;BME280;26812;42.662;23.352;2023-06-14T12:05:24;94603.22;;;25.11;47.51
41062;BME280;26812;42.662;23.352;2023-06-14T12:07:50;94594.09;;;25.37;48.31
41062;BME280;26812;42.662;23.352;2023-06-14T12:10:15;94571.16;;;25.20;47.82
41062;BME280;26812;42.662;23.352;2023-06-14T12:12:41;94607.13;;;25.10;48.58
41062;BME280;26812;42.662;23.352;2023-06-14T12:15:08;94596.16;;;25.06;48.50
41062;BME280;26812;42.662;23.352;2023-06-14T12:17:35;94597.56;;;25.64;48.21
41062;BME280;26812;42.662;23.352;2023-06-14T12:20:05;94587.09;;;25.79;48.60
41062;BME280;26812;42.662;23.352;2023-06-14T12:22:39;94596.50;;;25.58;48.06
41062;BME280;26812;42.662;23.352;2023-06-14T12:25:30;94575.56;;;25.37;48.51
41062;BME280;26812;42.662;23.352;2023-06-14T12:28:03;94595.19;;;25.20;50.76
41062;BME280;26812;42.662;23.352;2023-06-14T12:30:29;94593.34;;;25.10;50.25
41062;BME280;26812;42.662;23.352;2023-06-14T12:32:54;94562.75;;;25.27;50.47
41062;BME280;26812;42.662;23.352;2023-06-14T12:35:19;94567.88;;;25.02;50.46
41062;BME280;26812;42.662;23.352;2023-06-14T12:37:45;94595.34;;;24.78;50.24
41062;BME280;26812;42.662;23.352;2023-06-14T12:40:11;94589.97;;;25.25;49.57
41062;BME280;26812;42.662;23.352;2023-06-14T12:42:37;94567.38;;;24.84;50.59
41062;BME280;26812;42.662;23.352;2023-06-14T12:45:03;94560.66;;;24.85;50.80
41062;BME280;26812;42.662;23.352;2023-06-14T12:47:28;94565.28;;;25.18;50.28
41062;BME280;26812;42.662;23.352;2023-06-14T12:49:53;94574.44;;;25.12;50.60
41062;BME280;26812;42.662;23.352;2023-06-14T12:52:19;94575.94;;;24.89;50.70
41062;BME280;26812;42.662;23.352;2023-06-14T12:54:44;94558.31;;;25.10;49.54
41062;BME280;26812;42.662;23.352;2023-06-14T12:57:10;94550.38;;;24.31;51.63
41062;BME280;26812;42.662;23.352;2023-06-14T12:59:35;94559.88;;;24.57;51.65
41062;BME280;26812;42.662;23.352;2023-06-14T13:02:14;94567.97;;;24.68;52.20
41062;BME280;26812;42.662;23.352;2023-06-14T13:04:40;94555.66;;;24.49;52.59
41062;BME280;26812;42.662;23.352;2023-06-14T13:07:05;94549.47;;;24.41;51.48
41062;BME280;26812;42.662;23.352;2023-06-14T13:09:31;94555.22;;;24.81;50.87
41062;BME280;26812;42.662;23.352;2023-06-14T13:11:56;94554.41;;;24.23;53.77
41062;BME280;26812;42.662;23.352;2023-06-14T13:14:21;94562.78;;;24.12;54.79
41062;BME280;26812;42.662;23.352;2023-06-14T13:16:47;94583.97;;;24.15;56.30